Time;durP1;ratioP1;P1;durP2;ratioP2;P2;SDS_P1;SDS_P2;PMS_P1;PMS_P2;Temp;Humidity;BMP_temperature;BMP_pressure;BME280_temperature;BME280_humidity;BME280_pressure;Samples;Min_cycle;Max_cycle;Signal;HPM_P1;HPM_P2
2023/06/08 00:01:15;;;;;;;6.70;4.40;;;;;;;23.06;40.94;100604.30;109092;1257;58198;-71
2023/06/08 00:03:46;;;;;;;9.20;4.80;;;;;;;23.04;41.13;100606.31;109124;1258;63714;-71
2023/06/08 00:06:16;;;;;;;6.70;4.40;;;;;;;23.01;41.13;100605.27;109025;1258;58159;-70
2023/06/08 00:08:46;;;;;;;5.70;4.40;;;;;;;23.00;41.28;100602.95;109154;1257;58142;-71
2023/06/08 00:11:16;;;;;;;8.80;4.70;;;;;;;23.00;41.39;100604.20;109132;1258;64990;-70
2023/06/08 00:13:45;;;;;;;6.70;4.70;;;;;;;22.99;41.29;100601.62;109098;1257;58136;-71
2023/06/08 00:16:16;;;;;;;7.30;4.70;;;;;;;22.97;41.23;100601.65;108978;1258;63780;-73
2023/06/08 00:18:49;;;;;;;5.50;4.20;;;;;;;22.95;41.07;100597.27;109038;1262;58149;-71
2023/06/08 00:21:20;;;;;;;7.00;4.30;;;;;;;22.93;40.98;100598.67;109055;1257;58203;-71
2023/06/08 00:23:49;;;;;;;6.00;4.40;;;;;;;22.92;40.94;100596.10;109078;1257;63897;-71
2023/06/08 00:26:21;;;;;;;5.80;4.30;;;;;;;22.90;41.12;100595.42;109070;1257;58174;-71
2023/06/08 00:28:51;;;;;;;7.10;4.60;;;;;;;22.87;41.23;100594.89;109075;1264;64067;-71
2023/06/08 00:31:22;;;;;;;7.80;4.40;;;;;;;22.84;41.20;100595.90;109003;1257;58285;-72
2023/06/08 00:33:52;;;;;;;7.00;4.10;;;;;;;22.82;41.24;100595.09;109101;1257;57986;-71
2023/06/08 00:36:23;;;;;;;7.30;4.40;;;;;;;22.81;41.23;100596.61;109161;1260;63631;-71
2023/06/08 00:38:53;;;;;;;6.90;4.30;;;;;;;22.80;41.28;100598.39;109164;1257;59527;-73
2023/06/08 00:41:22;;;;;;;6.90;4.50;;;;;;;22.80;41.44;100594.61;109040;1257;64097;-72
2023/06/08 00:43:53;;;;;;;6.80;4.40;;;;;;;22.80;41.53;100593.09;109050;1259;58217;-71
2023/06/08 00:46:24;;;;;;;7.50;4.50;;;;;;;22.78;41.64;100590.71;109050;1257;58305;-72
2023/06/08 00:48:55;;;;;;;6.30;4.60;;;;;;;22.78;41.67;100589.42;109011;1257;63857;-71
2023/06/08 00:59:02;;;;;;;8.80;4.80;;;;;;;22.71;41.91;100589.54;102646;1292;600015;-70
2023/06/08 01:01:30;;;;;;;7.20;4.70;;;;;;;22.69;42.10;100591.09;104902;1273;59267;-70
2023/06/08 01:04:06;;;;;;;7.00;4.60;;;;;;;22.68;42.07;100591.73;105163;1266;59158;-70
2023/06/08 01:14:52;;;;;;;6.30;4.40;;;;;;;22.59;42.37;100594.15;102818;1291;600118;-71
2023/06/08 01:17:23;;;;;;;7.10;4.60;;;;;;;22.56;42.44;100595.88;104927;1267;59376;-70
2023/06/08 01:20:07;;;;;;;6.40;4.50;;;;;;;22.54;42.50;100592.25;105238;1267;59279;-71
2023/06/08 01:23:01;;;;;;;7.70;4.40;;;;;;;22.51;42.72;100590.70;105176;1266;63306;-71
2023/06/08 01:25:29;;;;;;;6.80;5.00;;;;;;;22.48;42.66;100589.13;105223;1267;59337;-71
2023/06/08 01:28:12;;;;;;;6.00;4.80;;;;;;;22.43;42.68;100592.88;108240;1263;206421;-71
2023/06/08 01:30:40;;;;;;;6.70;4.60;;;;;;;22.40;42.94;100594.34;108598;1263;57000;-71
2023/06/08 01:33:11;;;;;;;5.80;4.20;;;;;;;22.40;42.90;100594.95;108706;1263;57528;-71
2023/06/08 01:35:39;;;;;;;7.50;4.30;;;;;;;22.39;43.04;100598.46;108619;1265;63351;-71
2023/06/08 01:38:28;;;;;;;6.40;4.40;;;;;;;22.37;43.05;100599.42;108707;1264;57556;-71
2023/06/08 01:40:56;;;;;;;7.00;4.80;;;;;;;22.37;43.13;100602.52;108765;1263;63827;-71
2023/06/08 01:43:23;;;;;;;7.80;5.00;;;;;;;22.36;43.26;100597.39;108613;1265;57408;-71
2023/06/08 01:45:51;;;;;;;6.50;5.00;;;;;;;22.35;43.19;100599.91;108764;1264;57319;-71
2023/06/08 01:48:19;;;;;;;6.90;4.50;;;;;;;22.34;43.38;100598.04;108654;1264;62870;-71
2023/06/08 01:50:48;;;;;;;6.60;5.10;;;;;;;22.34;43.52;100600.39;108708;1265;57394;-71
2023/06/08 01:53:16;;;;;;;6.50;4.90;;;;;;;22.33;43.52;100601.71;108709;1265;62459;-71
2023/06/08 01:55:48;;;;;;;9.60;5.30;;;;;;;22.31;43.75;100601.26;108706;1266;57329;-71
2023/06/08 01:58:15;;;;;;;7.90;5.40;;;;;;;22.31;43.65;100596.70;108668;1266;57240;-72
2023/06/08 02:00:43;;;;;;;8.40;4.90;;;;;;;22.30;43.77;100596.03;108768;1265;62920;-71
2023/06/08 02:03:10;;;;;;;6.50;4.80;;;;;;;22.31;43.82;100594.00;108911;1262;58168;-71
2023/06/08 02:05:40;;;;;;;6.50;5.30;;;;;;;22.32;43.78;100590.29;108987;1262;62529;-71
2023/06/08 02:08:07;;;;;;;11.60;5.50;;;;;;;22.30;43.84;100592.05;108901;1262;57415;-71
2023/06/08 02:10:37;;;;;;;7.40;5.10;;;;;;;22.29;44.02;100594.92;108833;1261;57203;-71
2023/06/08 02:13:05;;;;;;;6.80;5.00;;;;;;;22.26;44.06;100589.44;108894;1263;62911;-71
2023/06/08 02:15:32;;;;;;;6.80;4.80;;;;;;;22.26;44.10;100592.66;109157;1257;58203;-71
2023/06/08 02:18:00;;;;;;;7.30;5.20;;;;;;;22.26;44.12;100592.38;109155;1257;63783;-70
2023/06/08 02:20:27;;;;;;;6.60;4.70;;;;;;;22.26;44.13;100595.18;109160;1257;57381;-77
2023/06/08 02:22:55;;;;;;;6.50;4.70;;;;;;;22.27;44.13;100594.77;109185;1257;57228;-70
2023/06/08 02:25:22;;;;;;;8.50;5.00;;;;;;;22.27;44.22;100594.20;109243;1257;64154;-72
2023/06/08 02:27:51;;;;;;;6.90;4.80;;;;;;;22.26;44.34;100595.73;109151;1257;57437;-72
2023/06/08 02:30:18;;;;;;;6.70;4.30;;;;;;;22.24;44.49;100601.02;109133;1260;62498;-71
2023/06/08 02:32:45;;;;;;;7.10;4.80;;;;;;;22.23;44.45;100601.67;109123;1257;57376;-71
2023/06/08 02:35:14;;;;;;;7.20;4.40;;;;;;;22.22;44.60;100601.88;109148;1257;57284;-70
2023/06/08 02:37:43;;;;;;;8.10;4.50;;;;;;;22.21;44.41;100601.08;109249;1256;64250;-71
2023/06/08 02:40:11;;;;;;;6.60;4.40;;;;;;;22.21;44.42;100601.41;109175;1257;58130;-71
2023/06/08 02:42:40;;;;;;;5.90;4.80;;;;;;;22.20;44.40;100599.91;109173;1257;63875;-70
2023/06/08 02:45:09;;;;;;;6.40;4.80;;;;;;;22.21;44.33;100602.23;109198;1256;57393;-70
2023/06/08 02:47:38;;;;;;;7.30;4.80;;;;;;;22.22;44.42;100601.87;109004;1257;57282;-71
2023/06/08 02:50:06;;;;;;;6.70;4.70;;;;;;;22.22;44.39;100600.71;109143;1257;64148;-71
2023/06/08 02:52:34;;;;;;;7.40;4.70;;;;;;;22.24;44.62;100605.90;109060;1257;57434;-71
2023/06/08 02:55:02;;;;;;;6.10;4.60;;;;;;;22.24;44.58;100605.36;109104;1257;63685;-71
2023/06/08 02:57:30;;;;;;;5.40;4.30;;;;;;;22.24;44.52;100600.67;109117;1257;57264;-71
2023/06/08 02:59:59;;;;;;;6.30;4.60;;;;;;;22.26;44.46;100600.85;109100;1257;57438;-72
2023/06/08 03:02:28;;;;;;;6.40;4.60;;;;;;;22.27;44.49;100599.75;109030;1257;62956;-71
2023/06/08 03:04:58;;;;;;;9.30;4.60;;;;;;;22.28;44.59;100599.88;109034;1257;57404;-71
2023/06/08 03:07:27;;;;;;;6.40;4.30;;;;;;;22.29;44.63;100601.52;109043;1257;63740;-70
2023/06/08 03:09:58;;;;;;;6.70;4.70;;;;;;;22.31;44.70;100602.45;109079;1260;57294;-70
2023/06/08 03:12:25;;;;;;;5.50;4.20;;;;;;;22.29;44.46;100605.85;109123;1257;57374;-71
2023/06/08 03:14:54;;;;;;;6.80;4.70;;;;;;;22.29;44.51;100606.73;109087;1257;65191;-72
2023/06/08 03:17:27;;;;;;;7.40;4.20;;;;;;;22.31;44.51;100611.89;109029;1257;58184;-72
2023/06/08 03:19:56;;;;;;;6.30;4.10;;;;;;;22.31;44.60;100611.31;109039;1257;62565;-72
2023/06/08 03:22:25;;;;;;;7.50;4.70;;;;;;;22.32;44.44;100612.35;109011;1257;57309;-71
2023/06/08 03:25:05;;;;;;;6.30;4.60;;;;;;;22.32;44.42;100607.50;109160;1257;57397;-72
2023/06/08 03:27:34;;;;;;;6.40;4.50;;;;;;;22.33;44.54;100605.56;109062;1257;64256;-72
2023/06/08 03:30:06;;;;;;;7.40;4.50;;;;;;;22.35;44.53;100600.65;109147;1257;58212;-71
2023/06/08 03:32:48;;;;;;;8.90;4.40;;;;;;;22.35;44.39;100601.98;109014;1261;64254;-71
2023/06/08 03:35:18;;;;;;;6.40;4.40;;;;;;;22.36;44.38;100603.19;109052;1257;57590;-72
2023/06/08 03:37:48;;;;;;;6.60;4.00;;;;;;;22.38;44.52;100603.52;109023;1257;57329;-72
2023/06/08 03:40:16;;;;;;;10.00;4.60;;;;;;;22.39;44.56;100607.41;109050;1257;62900;-73
2023/06/08 03:42:43;;;;;;;9.10;4.50;;;;;;;22.42;44.40;100609.38;109077;1257;57417;-72
2023/06/08 03:45:11;;;;;;;5.60;4.10;;;;;;;22.45;44.39;100614.95;109001;1257;63765;-72
2023/06/08 03:47:39;;;;;;;6.50;4.40;;;;;;;22.47;44.40;100617.23;109057;1257;57354;-72
2023/06/08 03:50:08;;;;;;;6.30;4.10;;;;;;;22.47;44.32;100621.42;109046;1258;57462;-72
2023/06/08 03:52:36;;;;;;;6.90;4.20;;;;;;;22.48;44.34;100621.02;109042;1259;64148;-71
2023/06/08 03:55:07;;;;;;;7.10;4.20;;;;;;;22.52;44.44;100620.90;109084;1258;58314;-71
2023/06/08 03:57:35;;;;;;;8.40;4.10;;;;;;;22.53;44.46;100621.04;109019;1259;63775;-70
2023/06/08 04:00:06;;;;;;;7.00;4.30;;;;;;;22.54;44.29;100624.14;109102;1257;57356;-71
2023/06/08 04:02:40;;;;;;;8.40;3.90;;;;;;;22.54;44.39;100627.05;109074;1259;57385;-70
2023/06/08 04:05:13;;;;;;;7.00;4.10;;;;;;;22.55;44.47;100630.69;109015;1259;62923;-71
2023/06/08 04:07:41;;;;;;;6.00;4.00;;;;;;;22.58;44.54;100635.56;109026;1259;58273;-71
2023/06/08 04:10:09;;;;;;;6.40;4.10;;;;;;;22.62;44.36;100634.95;108947;1258;63806;-70
2023/06/08 04:12:37;;;;;;;5.90;4.20;;;;;;;22.66;44.49;100634.59;109042;1259;57387;-71
2023/06/08 04:15:05;;;;;;;7.70;3.90;;;;;;;22.70;44.65;100632.07;109020;1259;57339;-71
2023/06/08 04:17:33;;;;;;;8.20;4.60;;;;;;;22.74;44.66;100634.58;108980;1259;63005;-70
2023/06/08 04:20:01;;;;;;;5.20;4.20;;;;;;;22.78;44.73;100635.63;108999;1259;58204;-70
2023/06/08 04:22:28;;;;;;;6.90;4.10;;;;;;;22.82;44.85;100638.35;109013;1259;63688;-71
2023/06/08 04:24:56;;;;;;;11.40;4.30;;;;;;;22.87;44.72;100635.55;108995;1259;57383;-70
2023/06/08 04:27:24;;;;;;;6.50;4.20;;;;;;;22.92;44.84;100633.02;109017;1259;57368;-77
2023/06/08 04:29:52;;;;;;;5.40;4.30;;;;;;;22.98;44.87;100633.30;109065;1259;62835;-78
2023/06/08 04:32:20;;;;;;;8.30;5.00;;;;;;;23.04;44.94;100635.95;109100;1259;57423;-77
2023/06/08 04:34:52;;;;;;;6.40;4.50;;;;;;;23.08;44.74;100636.31;109040;1260;63717;-77
2023/06/08 04:37:20;;;;;;;6.40;4.50;;;;;;;23.13;44.68;100640.04;109057;1259;57426;-77
2023/06/08 04:39:48;;;;;;;7.20;5.00;;;;;;;23.17;44.73;100637.71;109088;1259;57424;-76
2023/06/08 04:42:17;;;;;;;6.50;4.30;;;;;;;23.21;44.66;100634.50;108972;1259;62830;-81
2023/06/08 04:44:45;;;;;;;8.60;4.40;;;;;;;23.26;44.61;100633.87;109016;1259;58285;-80
2023/06/08 04:47:14;;;;;;;9.00;3.90;;;;;;;23.31;44.66;100631.61;108971;1260;62523;-78
2023/06/08 04:49:42;;;;;;;9.20;4.60;;;;;;;23.35;44.50;100634.87;109024;1258;57289;-78
2023/06/08 04:52:15;;;;;;;9.60;4.10;;;;;;;23.38;44.58;100636.17;108892;1259;57499;-73
2023/06/08 04:54:42;;;;;;;8.30;4.30;;;;;;;23.43;44.65;100634.87;109042;1259;64221;-75
2023/06/08 04:57:10;;;;;;;6.80;4.30;;;;;;;23.48;44.65;100632.49;108936;1259;57506;-77
2023/06/08 04:59:38;;;;;;;6.70;4.00;;;;;;;23.52;44.53;100631.52;108998;1259;63830;-77
2023/06/08 05:02:05;;;;;;;7.50;4.00;;;;;;;23.56;44.50;100631.95;109083;1260;57435;-78
2023/06/08 05:04:33;;;;;;;6.20;3.90;;;;;;;23.59;44.41;100633.20;109113;1259;57335;-76
2023/06/08 05:07:01;;;;;;;7.10;4.30;;;;;;;23.62;44.49;100634.04;108992;1259;63074;-78
2023/06/08 05:09:28;;;;;;;5.50;4.30;;;;;;;23.66;44.37;100636.65;108804;1259;58201;-79
2023/06/08 05:11:56;;;;;;;6.60;4.70;;;;;;;23.68;44.12;100636.52;109027;1259;62499;-79
2023/06/08 05:14:24;;;;;;;8.10;4.50;;;;;;;23.72;43.99;100637.58;108948;1259;57444;-78
2023/06/08 05:16:51;;;;;;;5.40;4.20;;;;;;;23.77;44.09;100637.27;108943;1259;57362;-78
2023/06/08 05:19:19;;;;;;;7.20;4.20;;;;;;;23.81;44.27;100639.55;108966;1259;64413;-78
2023/06/08 05:21:46;;;;;;;8.30;4.40;;;;;;;23.86;44.43;100639.91;109065;1259;57439;-77
2023/06/08 05:24:14;;;;;;;9.50;4.30;;;;;;;23.90;44.33;100644.66;108916;1259;64887;-77
2023/06/08 05:26:42;;;;;;;4.80;4.10;;;;;;;23.94;44.09;100647.00;108899;1259;58591;-77
2023/06/08 05:29:09;;;;;;;5.40;4.50;;;;;;;23.98;43.93;100645.14;108950;1259;58110;-77
2023/06/08 05:31:39;;;;;;;9.20;4.30;;;;;;;23.98;43.96;100645.02;109032;1259;63679;-80
2023/06/08 05:34:06;;;;;;;7.00;4.50;;;;;;;23.98;43.99;100647.09;109043;1259;58538;-77
2023/06/08 05:36:35;;;;;;;10.30;5.10;;;;;;;23.99;43.93;100645.80;109026;1259;63746;-77
2023/06/08 05:39:04;;;;;;;6.30;4.60;;;;;;;24.05;44.05;100646.95;108965;1262;58068;-78
2023/06/08 05:41:32;;;;;;;5.70;4.40;;;;;;;24.10;43.86;100644.39;109033;1259;58091;-74
2023/06/08 05:43:59;;;;;;;6.70;4.50;;;;;;;24.12;43.82;100648.59;109020;1258;64920;-71
2023/06/08 05:46:26;;;;;;;7.70;4.10;;;;;;;24.16;43.93;100650.67;109071;1259;58225;-72
2023/06/08 05:48:54;;;;;;;8.30;4.80;;;;;;;24.21;43.82;100653.79;109026;1258;62518;-72
2023/06/08 05:51:22;;;;;;;7.60;4.60;;;;;;;24.24;43.89;100654.55;109002;1260;58229;-73
2023/06/08 05:53:51;;;;;;;9.70;4.40;;;;;;;24.28;43.93;100654.44;109024;1259;58063;-73
2023/06/08 05:56:19;;;;;;;6.10;4.30;;;;;;;24.30;43.91;100655.95;108990;1259;64929;-77
2023/06/08 05:58:47;;;;;;;6.30;3.80;;;;;;;24.33;43.61;100653.27;108938;1260;58178;-74
2023/06/08 06:01:19;;;;;;;5.20;4.00;;;;;;;24.37;43.59;100655.90;108965;1260;64887;-78
2023/06/08 06:03:47;;;;;;;7.20;4.30;;;;;;;24.41;43.46;100658.27;108946;1260;58215;-73
2023/06/08 06:06:16;;;;;;;10.90;3.80;;;;;;;24.43;43.26;100658.91;109023;1259;58089;-73
2023/06/08 06:08:44;;;;;;;7.00;3.50;;;;;;;24.47;43.09;100657.53;109057;1260;64955;-74
2023/06/08 06:11:11;;;;;;;6.50;3.60;;;;;;;24.49;42.73;100654.21;109000;1260;58147;-75
2023/06/08 06:13:39;;;;;;;6.40;3.70;;;;;;;24.52;42.67;100653.97;109061;1259;63899;-75
2023/06/08 06:16:06;;;;;;;5.40;3.50;;;;;;;24.56;42.46;100657.75;108982;1259;58213;-77
2023/06/08 06:18:34;;;;;;;8.40;3.60;;;;;;;24.55;42.29;100655.73;108986;1259;58141;-79
2023/06/08 06:21:01;;;;;;;6.30;3.50;;;;;;;24.54;42.39;100657.63;109029;1259;63789;-77
2023/06/08 06:23:29;;;;;;;4.30;3.40;;;;;;;24.55;42.40;100656.18;108985;1261;58181;-78
2023/06/08 06:25:58;;;;;;;7.60;3.30;;;;;;;24.59;42.62;100653.68;108909;1260;63821;-78
2023/06/08 06:28:26;;;;;;;8.10;3.30;;;;;;;24.65;42.86;100653.70;108997;1260;58114;-77
2023/06/08 06:30:55;;;;;;;7.00;3.10;;;;;;;24.69;42.60;100651.41;109026;1260;58211;-77
2023/06/08 06:33:23;;;;;;;7.60;3.30;;;;;;;24.74;42.35;100650.23;108962;1259;63707;-76
2023/06/08 06:35:50;;;;;;;5.30;3.40;;;;;;;24.77;42.20;100646.75;109033;1261;58236;-78
2023/06/08 06:38:18;;;;;;;5.10;3.10;;;;;;;24.84;42.50;100643.05;108996;1259;63868;-77
2023/06/08 06:40:52;;;;;;;6.40;2.90;;;;;;;24.99;42.62;100636.14;108987;1259;58201;-78
2023/06/08 06:43:21;;;;;;;5.20;3.00;;;;;;;25.15;42.42;100633.27;108991;1260;58024;-77
2023/06/08 06:46:10;;;;;;;5.30;3.20;;;;;;;25.34;42.05;100628.98;108933;1260;64947;-78
2023/06/08 06:48:37;;;;;;;4.80;2.70;;;;;;;25.50;41.20;100625.53;109026;1260;58197;-77
2023/06/08 06:51:05;;;;;;;4.90;3.30;;;;;;;25.64;41.11;100628.10;108981;1260;62518;-76
2023/06/08 06:53:34;;;;;;;7.10;2.80;;;;;;;25.79;40.86;100632.02;108895;1259;58609;-77
2023/06/08 06:56:02;;;;;;;6.90;2.90;;;;;;;25.88;40.42;100632.64;109008;1260;58187;-77
2023/06/08 06:58:29;;;;;;;7.30;3.00;;;;;;;25.92;40.27;100632.30;108986;1259;64906;-78
2023/06/08 07:00:57;;;;;;;4.70;3.30;;;;;;;25.94;40.10;100634.73;109022;1260;58172;-78
2023/06/08 07:03:28;;;;;;;4.70;3.20;;;;;;;25.94;39.78;100634.47;108990;1260;62560;-78
2023/06/08 07:05:58;;;;;;;5.80;2.80;;;;;;;25.93;39.83;100636.39;108995;1260;58254;-77
2023/06/08 07:08:26;;;;;;;4.80;3.30;;;;;;;25.93;39.81;100636.06;109002;1260;58115;-77
2023/06/08 07:10:54;;;;;;;3.80;2.90;;;;;;;25.94;39.76;100637.55;109113;1260;63656;-77
2023/06/08 07:13:22;;;;;;;5.10;2.90;;;;;;;25.96;39.43;100640.42;109005;1260;58182;-77
2023/06/08 07:15:53;;;;;;;3.80;2.80;;;;;;;26.01;39.51;100638.48;108941;1260;63685;-78
2023/06/08 07:18:20;;;;;;;6.60;3.10;;;;;;;26.10;39.61;100635.30;108974;1260;58184;-77
2023/06/08 07:20:48;;;;;;;4.80;2.70;;;;;;;26.21;39.53;100634.78;109004;1265;58030;-78
2023/06/08 07:23:19;;;;;;;8.00;3.20;;;;;;;26.39;39.68;100634.15;108963;1260;64953;-78
2023/06/08 07:26:06;;;;;;;4.00;2.60;;;;;;;26.58;39.50;100634.65;109037;1260;58404;-78
2023/06/08 07:28:54;;;;;;;3.30;2.90;;;;;;;26.77;39.16;100636.29;108901;1266;63733;-78
2023/06/08 07:31:23;;;;;;;5.80;2.80;;;;;;;26.91;38.92;100636.70;109002;1260;58159;-79
2023/06/08 07:33:51;;;;;;;4.30;2.90;;;;;;;27.00;38.40;100635.83;109000;1260;58187;-78
2023/06/08 07:36:18;;;;;;;5.20;2.90;;;;;;;27.04;38.16;100635.69;109011;1260;63640;-78
2023/06/08 07:38:50;;;;;;;4.30;3.00;;;;;;;27.09;38.16;100637.73;109008;1260;58266;-78
2023/06/08 07:41:22;;;;;;;6.40;2.90;;;;;;;27.18;37.94;100635.55;108932;1260;62466;-77
2023/06/08 07:43:50;;;;;;;4.70;2.90;;;;;;;27.29;37.98;100638.98;108961;1260;58219;-76
2023/06/08 07:46:17;;;;;;;7.90;3.20;;;;;;;27.42;38.14;100641.55;109000;1260;58143;-75
2023/06/08 07:48:45;;;;;;;5.00;3.10;;;;;;;27.58;37.88;100639.23;108972;1264;65002;-76
2023/06/08 07:51:15;;;;;;;7.00;2.90;;;;;;;27.66;37.15;100643.84;109030;1260;58492;-76
2023/06/08 07:53:46;;;;;;;4.90;2.90;;;;;;;27.71;37.18;100644.38;108937;1260;62521;-76
2023/06/08 07:56:18;;;;;;;7.20;2.90;;;;;;;27.80;37.17;100641.75;109012;1260;58150;-76
2023/06/08 07:58:49;;;;;;;14.50;3.40;;;;;;;27.88;36.98;100641.02;109034;1260;58333;-76
2023/06/08 08:01:19;;;;;;;17.00;3.40;;;;;;;27.98;37.17;100638.13;108964;1260;65081;-76
2023/06/08 08:03:51;;;;;;;6.80;3.10;;;;;;;28.09;37.35;100637.29;109014;1260;58223;-74
2023/06/08 08:06:22;;;;;;;3.70;2.50;;;;;;;28.20;36.97;100632.71;108900;1260;63690;-76
2023/06/08 08:08:52;;;;;;;5.80;2.80;;;;;;;28.24;36.64;100631.94;108979;1260;59111;-77
2023/06/08 08:11:23;;;;;;;4.40;2.80;;;;;;;28.27;36.47;100630.86;108948;1264;58218;-76
2023/06/08 08:13:54;;;;;;;4.40;2.80;;;;;;;28.30;36.29;100628.98;108996;1260;63627;-76
2023/06/08 08:16:24;;;;;;;5.00;2.80;;;;;;;28.36;36.14;100630.80;108782;1260;58344;-76
2023/06/08 08:18:56;;;;;;;5.80;2.90;;;;;;;28.40;36.07;100632.38;108984;1260;62973;-75
2023/06/08 08:21:27;;;;;;;8.10;3.10;;;;;;;28.42;36.40;100633.59;109022;1259;58064;-74
2023/06/08 08:23:57;;;;;;;5.60;2.70;;;;;;;28.47;36.33;100633.31;108962;1260;58009;-76
2023/06/08 08:26:30;;;;;;;3.60;2.70;;;;;;;28.54;36.24;100630.94;109071;1260;63997;-76
2023/06/08 08:29:01;;;;;;;4.30;2.50;;;;;;;28.62;35.82;100629.77;109074;1260;58470;-76
2023/06/08 08:31:31;;;;;;;5.20;3.00;;;;;;;28.67;35.30;100630.89;108907;1260;62436;-76
2023/06/08 08:34:02;;;;;;;7.50;3.00;;;;;;;28.70;34.92;100624.16;108939;1263;58156;-76
2023/06/08 08:36:32;;;;;;;3.80;2.80;;;;;;;28.76;35.14;100622.89;108952;1261;58046;-76
2023/06/08 08:39:03;;;;;;;7.00;3.00;;;;;;;28.86;35.02;100623.13;108902;1260;65014;-76
2023/06/08 08:41:34;;;;;;;4.40;2.90;;;;;;;29.03;34.67;100623.60;108976;1260;58248;-76
2023/06/08 08:44:10;;;;;;;6.80;2.70;;;;;;;29.14;34.36;100623.20;108839;1260;63697;-76
2023/06/08 08:46:40;;;;;;;5.20;2.60;;;;;;;29.25;34.13;100621.05;108899;1260;58169;-76
2023/06/08 08:49:18;;;;;;;3.80;2.80;;;;;;;29.28;33.90;100617.86;108951;1260;58165;-75
2023/06/08 08:59:23;;;;;;;8.50;3.20;;;;;;;29.68;34.42;100611.09;102787;1296;600136;-75
2023/06/08 09:01:50;;;;;;;4.90;3.10;;;;;;;29.67;33.82;100613.04;104935;1268;59324;-75
2023/06/08 09:04:18;;;;;;;6.30;3.10;;;;;;;29.67;33.73;100611.08;105222;1263;59416;-75
2023/06/08 09:06:48;;;;;;;5.80;2.80;;;;;;;29.71;33.49;100609.69;105145;1269;63433;-70
2023/06/08 09:09:16;;;;;;;6.40;3.20;;;;;;;29.75;32.89;100605.13;104933;1267;59222;-76
2023/06/08 09:12:00;;;;;;;6.30;3.00;;;;;;;29.73;32.70;100601.98;105118;1266;63715;-76
2023/06/08 09:24:22;;;;;;;5.60;3.10;;;;;;;29.91;34.04;100596.23;102749;1293;600294;-77
2023/06/08 09:26:55;;;;;;;6.70;2.90;;;;;;;29.93;34.06;100592.52;104928;1266;59267;-75
2023/06/08 09:29:31;;;;;;;15.90;3.80;;;;;;;29.97;33.86;100591.05;104896;1266;59813;-76
2023/06/08 09:32:00;;;;;;;8.10;3.00;;;;;;;30.05;33.90;100589.25;104655;1266;62049;-76
2023/06/08 09:34:33;;;;;;;6.60;2.60;;;;;;;30.16;33.65;100585.83;104870;1266;59905;-76
2023/06/08 09:37:08;;;;;;;3.90;2.60;;;;;;;30.26;33.25;100584.57;104831;1266;158220;-76
2023/06/08 09:39:44;;;;;;;4.90;2.80;;;;;;;30.38;33.39;100583.73;104879;1274;59239;-76
2023/06/08 09:42:11;;;;;;;4.90;2.60;;;;;;;30.50;33.32;100579.14;105235;1263;59347;-77
2023/06/08 09:44:39;;;;;;;4.00;2.50;;;;;;;30.59;33.44;100578.30;104974;1266;63472;-76
2023/06/08 09:47:25;;;;;;;9.00;3.10;;;;;;;30.76;33.83;100575.16;105173;1269;59752;-77
2023/06/08 09:49:53;;;;;;;6.10;2.70;;;;;;;31.03;33.38;100574.90;104922;1266;62646;-77
2023/06/08 09:52:22;;;;;;;3.40;2.50;;;;;;;31.28;32.71;100579.83;104916;1266;59626;-74
2023/06/08 09:54:50;;;;;;;7.90;2.90;;;;;;;31.49;31.99;100574.41;104868;1267;59735;-76
2023/06/08 09:57:20;;;;;;;4.60;2.60;;;;;;;31.62;31.86;100578.66;105084;1266;64823;-79
2023/06/08 10:00:09;;;;;;;5.70;2.60;;;;;;;31.57;31.51;100575.81;105188;1269;59766;-75
2023/06/08 10:10:25;;;;;;;5.90;2.80;;;;;;;31.75;31.92;100565.01;102753;1292;599985;-75
2023/06/08 10:12:53;;;;;;;6.40;2.90;;;;;;;31.92;31.66;100560.92;104963;1271;59299;-76
2023/06/08 10:15:21;;;;;;;6.80;2.80;;;;;;;32.09;31.24;100558.77;104913;1266;59283;-76
2023/06/08 10:17:50;;;;;;;6.50;2.80;;;;;;;32.20;31.00;100558.17;104798;1266;62041;-76
2023/06/08 10:20:17;;;;;;;5.70;2.70;;;;;;;32.38;30.68;100553.77;108667;1266;58133;-77
2023/06/08 10:22:45;;;;;;;5.00;3.00;;;;;;;32.64;30.73;100556.69;108447;1266;185795;-77
2023/06/08 10:25:13;;;;;;;7.30;2.80;;;;;;;32.88;30.37;100556.70;108718;1268;56853;-77
2023/06/08 10:27:48;;;;;;;5.80;2.90;;;;;;;32.96;29.77;100556.58;108615;1263;57044;-76
2023/06/08 10:30:29;;;;;;;5.40;2.70;;;;;;;32.88;29.10;100554.34;108804;1263;63332;-76
2023/06/08 10:33:08;;;;;;;6.20;2.50;;;;;;;32.83;29.01;100551.86;108740;1263;58098;-76
2023/06/08 10:35:37;;;;;;;8.90;3.00;;;;;;;32.88;28.64;100547.45;108731;1264;63755;-75
2023/06/08 10:38:12;;;;;;;16.50;4.10;;;;;;;32.83;28.23;100546.91;108784;1264;57374;-75
2023/06/08 10:40:42;;;;;;;8.20;3.00;;;;;;;32.79;28.25;100543.86;108779;1264;57292;-76
2023/06/08 10:43:10;;;;;;;5.60;2.70;;;;;;;32.84;28.30;100542.01;108745;1264;64147;-76
2023/06/08 10:45:57;;;;;;;3.50;2.40;;;;;;;33.06;28.22;100541.86;108811;1263;58325;-76
2023/06/08 10:48:34;;;;;;;4.50;2.60;;;;;;;33.25;27.12;100539.90;108603;1264;63943;-76
2023/06/08 10:51:03;;;;;;;4.60;2.70;;;;;;;33.42;27.24;100532.16;108696;1265;57300;-76
2023/06/08 10:53:42;;;;;;;3.60;2.50;;;;;;;33.63;26.38;100532.61;108938;1262;57283;-76
2023/06/08 10:56:09;;;;;;;4.60;2.50;;;;;;;33.75;25.86;100529.55;108910;1261;64121;-76
2023/06/08 10:58:50;;;;;;;10.80;3.00;;;;;;;33.80;25.97;100529.69;108886;1261;58286;-76
2023/06/08 11:01:18;;;;;;;4.60;2.50;;;;;;;33.80;25.95;100530.71;108890;1263;62780;-76
2023/06/08 11:03:46;;;;;;;7.70;2.60;;;;;;;33.66;25.62;100527.84;108896;1262;57382;-76
2023/06/08 11:06:14;;;;;;;4.80;2.60;;;;;;;33.45;25.57;100528.66;108967;1263;57284;-76
2023/06/08 11:08:42;;;;;;;7.70;2.60;;;;;;;33.23;25.82;100532.67;108979;1261;64137;-76
2023/06/08 11:11:10;;;;;;;5.00;2.50;;;;;;;33.00;26.29;100530.50;108997;1260;57491;-76
2023/06/08 11:13:37;;;;;;;4.70;2.70;;;;;;;32.74;26.47;100529.77;108970;1260;62464;-76
2023/06/08 11:16:05;;;;;;;6.20;2.50;;;;;;;32.41;26.90;100529.67;108960;1261;57340;-76
2023/06/08 11:18:33;;;;;;;5.80;2.70;;;;;;;32.16;27.13;100529.08;108910;1261;57332;-76
2023/06/08 11:21:00;;;;;;;6.40;2.50;;;;;;;31.93;27.39;100521.98;108905;1261;64201;-76
2023/06/08 11:23:32;;;;;;;5.60;2.60;;;;;;;31.72;27.66;100519.80;108941;1260;57449;-76
2023/06/08 11:25:59;;;;;;;4.90;2.40;;;;;;;31.49;28.04;100518.12;108840;1261;63725;-76
2023/06/08 11:28:27;;;;;;;5.20;2.50;;;;;;;31.29;28.68;100517.85;108757;1261;57435;-78
2023/06/08 11:30:55;;;;;;;3.90;2.60;;;;;;;31.14;29.33;100516.98;108983;1261;57332;-77
2023/06/08 11:33:23;;;;;;;4.30;2.50;;;;;;;31.02;29.68;100517.64;108910;1262;66666;-76
2023/06/08 11:35:51;;;;;;;7.20;2.40;;;;;;;30.90;30.00;100515.89;108872;1260;58204;-76
2023/06/08 11:38:22;;;;;;;6.00;2.40;;;;;;;30.79;30.05;100512.04;108896;1261;63743;-76
2023/06/08 11:40:50;;;;;;;4.80;2.30;;;;;;;30.67;29.86;100510.02;108825;1261;57318;-76
2023/06/08 11:43:20;;;;;;;4.80;2.70;;;;;;;30.57;29.98;100511.33;108946;1260;57363;-77
2023/06/08 11:45:47;;;;;;;9.90;2.40;;;;;;;30.50;30.25;100512.52;108879;1260;64190;-76
2023/06/08 11:48:15;;;;;;;11.00;2.70;;;;;;;30.45;30.93;100512.50;108918;1260;57381;-77
2023/06/08 11:50:50;;;;;;;13.70;3.00;;;;;;;30.40;31.44;100508.02;108898;1263;63944;-77
2023/06/08 11:53:22;;;;;;;6.70;2.40;;;;;;;30.35;31.81;100507.39;108849;1262;57445;-76
2023/06/08 11:55:52;;;;;;;6.30;2.90;;;;;;;30.29;31.86;100510.73;108784;1262;57428;-76
2023/06/08 11:58:27;;;;;;;5.80;2.70;;;;;;;30.22;31.90;100505.16;108870;1266;64156;-76
2023/06/08 12:01:07;;;;;;;3.00;2.60;;;;;;;30.16;32.54;100503.50;108908;1263;58215;-76
2023/06/08 12:03:45;;;;;;;3.00;2.40;;;;;;;30.12;32.39;100501.48;108862;1262;63711;-76
2023/06/08 12:06:15;;;;;;;5.70;2.80;;;;;;;30.09;32.51;100500.32;108877;1262;57304;-76
2023/06/08 12:08:42;;;;;;;5.30;2.70;;;;;;;30.08;32.42;100497.58;108741;1262;57330;-77
2023/06/08 12:11:11;;;;;;;14.70;3.20;;;;;;;30.08;32.41;100499.33;108796;1262;64158;-76